Terminal Aerodrome Forecast
Issued by NWS

Home | Current Version | Previous Version | Text Only | Print | Product List | Glossary On
Versions: 1 2 3 4 5 6 7 8 9 10 11 12
000
FTUS43 KPAH 012340
TAFCGI
TAF
KCGI 012340Z 0200/0224 14008KT P6SM -SHRA BKN120
     FM020600 18014G23KT P6SM -TSRA SCT025CB BKN040
      TEMPO 0206/0210 3SM TSRA BKN020CB
     FM021000 19015G24KT P6SM BKN020
     FM022000 22011G19KT P6SM SCT025 BKN050=

USA.gov is the U.S. government's official web portal to all federal, state and local government web resources and services.